Time;durP1;ratioP1;P1;durP2;ratioP2;P2;SDS_P1;SDS_P2;PMS_P1;PMS_P2;Temp;Humidity;BMP_temperature;BMP_pressure;BME280_temperature;BME280_humidity;BME280_pressure;Samples;Min_cycle;Max_cycle;Signal;HPM_P1;HPM_P2
2022/01/28 00:04:50;;;;;;;67.47;33.95;;;;;;;5.31;100.00;102435.28;5109203;28;20028;-74
2022/01/28 00:07:16;;;;;;;71.25;36.17;;;;;;;5.31;100.00;102438.03;5114544;28;20035;-75
2022/01/28 00:09:41;;;;;;;61.53;32.05;;;;;;;5.31;100.00;102430.59;5118022;28;20040;-74
2022/01/28 00:12:08;;;;;;;64.35;33.28;;;;;;;5.31;100.00;102436.13;5104849;28;20028;-74
2022/01/28 00:14:43;;;;;;;66.97;33.10;;;;;;;5.32;100.00;102432.31;5111440;28;20035;-74
2022/01/28 00:18:02;;;;;;;66.85;34.90;;;;;;;5.33;100.00;102427.66;5102481;28;20388;-74
2022/01/28 00:36:26;;;;;;;62.28;32.30;;;;;;;5.32;100.00;102434.19;5114980;28;20035;-74
2022/01/28 00:39:13;;;;;;;60.03;31.55;;;;;;;5.33;100.00;102419.38;5114765;28;20032;-74
2022/01/28 00:41:39;;;;;;;63.60;32.38;;;;;;;5.32;100.00;102421.28;5097910;28;20042;-74
2022/01/28 00:44:04;;;;;;;66.35;33.42;;;;;;;5.32;100.00;102424.06;5090694;28;20503;-74
2022/01/28 00:46:30;;;;;;;69.55;34.08;;;;;;;5.33;100.00;102420.22;5104968;28;20120;-74
2022/01/28 00:48:56;;;;;;;61.28;32.50;;;;;;;5.33;100.00;102422.13;5118382;28;20062;-74
2022/01/28 00:51:22;;;;;;;59.03;31.45;;;;;;;5.34;100.00;102421.06;5111960;28;20113;-74
2022/01/28 00:53:47;;;;;;;60.70;31.95;;;;;;;5.34;100.00;102423.81;5114556;28;20055;-74
2022/01/28 00:56:13;;;;;;;61.40;33.28;;;;;;;5.35;100.00;102420.03;5119255;28;20036;-74
2022/01/28 00:58:38;;;;;;;59.05;31.33;;;;;;;5.34;100.00;102404.53;5092519;27;20027;-74
2022/01/28 01:01:04;;;;;;;58.47;30.33;;;;;;;5.34;100.00;102407.28;5117497;28;20034;-74
2022/01/28 01:03:29;;;;;;;59.30;31.98;;;;;;;5.34;100.00;102407.28;5086974;28;20032;-74
2022/01/28 01:05:55;;;;;;;56.05;30.38;;;;;;;5.33;100.00;102414.72;5097832;27;20431;-74
2022/01/28 01:08:20;;;;;;;56.08;30.67;;;;;;;5.33;100.00;102408.38;5119476;28;20061;-74
2022/01/28 01:10:46;;;;;;;57.80;31.60;;;;;;;5.34;100.00;102415.56;5117382;27;20023;-74
2022/01/28 01:13:12;;;;;;;54.13;30.23;;;;;;;5.34;100.00;102418.31;5115014;27;20027;-74
2022/01/28 01:15:42;;;;;;;52.78;28.35;;;;;;;5.35;100.00;102422.78;5116351;28;20036;-74
2022/01/28 01:18:25;;;;;;;51.90;28.67;;;;;;;5.33;100.00;102422.13;5096679;28;20062;-74
2022/01/28 01:21:05;;;;;;;50.67;27.35;;;;;;;5.34;100.00;102429.34;5112534;27;20031;-74
2022/01/28 01:23:36;;;;;;;57.92;30.67;;;;;;;5.34;100.00;102434.84;5105439;28;20023;-74
2022/01/28 01:28:32;;;;;;;51.50;28.58;;;;;;;5.33;100.00;102428.50;5090244;28;20089;-74
2022/01/28 01:30:59;;;;;;;50.53;28.08;;;;;;;5.33;100.00;102435.91;5114281;27;20135;-74
2022/01/28 01:33:26;;;;;;;48.72;27.60;;;;;;;5.32;100.00;102432.31;5096286;28;20035;-74
2022/01/28 01:35:52;;;;;;;56.92;30.63;;;;;;;5.32;100.00;102437.84;5126030;27;20049;-74
2022/01/28 01:38:17;;;;;;;52.55;28.70;;;;;;;5.32;100.00;102439.72;5126516;27;20369;-74
2022/01/28 01:40:47;;;;;;;48.67;27.27;;;;;;;5.32;100.00;102435.06;5115944;27;20024;-74
2022/01/28 01:53:34;;;;;;;50.05;27.02;;;;;;;5.34;100.00;102445.88;5122138;27;20066;-74
2022/01/28 01:56:00;;;;;;;53.70;30.55;;;;;;;5.33;100.00;102450.53;5103839;28;20035;-74
2022/01/28 01:58:30;;;;;;;50.33;28.10;;;;;;;5.34;100.00;102448.63;5097654;28;20024;-74
2022/01/28 02:00:57;;;;;;;48.33;26.55;;;;;;;5.34;100.00;102448.63;5073092;27;20122;-74
2022/01/28 02:03:23;;;;;;;51.20;27.77;;;;;;;5.34;100.00;102456.88;5130825;27;20080;-74
2022/01/28 02:05:48;;;;;;;44.85;25.92;;;;;;;5.35;100.00;102458.59;5116902;27;20039;-74
2022/01/28 02:08:14;;;;;;;48.53;26.27;;;;;;;5.34;100.00;102459.63;5107878;27;20064;-74
2022/01/28 02:10:39;;;;;;;49.65;27.83;;;;;;;5.35;100.00;102450.34;5086884;28;20035;-74
2022/01/28 02:13:05;;;;;;;52.03;28.02;;;;;;;5.35;100.00;102453.94;5106245;27;20464;-74
2022/01/28 02:15:30;;;;;;;48.00;26.52;;;;;;;5.36;100.00;102457.53;5123966;27;20034;-74
2022/01/28 02:17:57;;;;;;;45.58;25.20;;;;;;;5.36;100.00;102446.50;5116001;27;20034;-74
2022/01/28 02:20:30;;;;;;;47.90;28.08;;;;;;;5.35;100.00;102459.44;5131322;27;20038;-74
2022/01/28 02:22:56;;;;;;;47.28;26.63;;;;;;;5.37;100.00;102461.97;5136330;27;20491;-74
2022/01/28 02:25:23;;;;;;;44.85;24.15;;;;;;;5.36;100.00;102465.78;5133622;27;20047;-74
2022/01/28 02:27:49;;;;;;;49.42;27.92;;;;;;;5.37;100.00;102467.47;5133546;27;20046;-74
2022/01/28 02:30:14;;;;;;;57.72;30.55;;;;;;;5.38;100.00;102474.72;5125275;27;20495;-74
2022/01/28 02:32:40;;;;;;;53.42;29.63;;;;;;;5.38;100.00;102470.03;5087972;28;20040;-74
2022/01/28 02:35:06;;;;;;;45.40;26.38;;;;;;;5.38;100.00;102478.31;5078002;28;20031;-74
2022/01/28 02:37:31;;;;;;;44.92;25.45;;;;;;;5.40;100.00;102480.00;5098767;27;20024;-74
2022/01/28 02:39:56;;;;;;;44.13;25.20;;;;;;;5.38;100.00;102474.72;5112668;28;20028;-74
2022/01/28 02:42:37;;;;;;;43.92;25.42;;;;;;;5.38;100.00;102483.81;5099179;28;20031;-74
2022/01/28 02:45:03;;;;;;;46.38;26.63;;;;;;;5.39;100.00;102481.91;5097762;28;20489;-74
2022/01/28 02:47:36;;;;;;;46.47;25.60;;;;;;;5.41;100.00;102473.44;5101827;28;20078;-74
2022/01/28 02:50:03;;;;;;;46.45;24.90;;;;;;;5.40;100.00;102472.56;5093303;28;20435;-74
2022/01/28 02:52:49;;;;;;;45.83;25.88;;;;;;;5.40;100.00;102472.56;5099882;28;20085;-74
2022/01/28 02:55:14;;;;;;;46.15;26.42;;;;;;;5.40;100.00;102475.31;5092702;28;20066;-75
2022/01/28 02:57:50;;;;;;;45.47;25.90;;;;;;;5.40;100.00;102472.56;5088548;28;20028;-74
2022/01/28 03:00:16;;;;;;;51.75;27.63;;;;;;;5.41;100.00;102477.03;5092743;28;20025;-74
2022/01/28 03:02:42;;;;;;;45.22;24.83;;;;;;;5.41;100.00;102474.28;5087390;28;20499;-74
2022/01/28 03:07:35;;;;;;;44.13;24.77;;;;;;;5.40;100.00;102475.31;5094415;28;20138;-74
2022/01/28 03:12:37;;;;;;;46.88;27.05;;;;;;;5.41;100.00;102488.06;5092965;28;20108;-74
2022/01/28 03:15:06;;;;;;;51.35;26.98;;;;;;;5.41;100.00;102485.31;5105483;28;20085;-74
2022/01/28 03:22:47;;;;;;;49.80;27.42;;;;;;;5.41;100.00;102488.06;5070790;28;20032;-74
2022/01/28 03:25:12;;;;;;;46.90;26.20;;;;;;;5.42;100.00;102486.16;5113251;28;20035;-74
2022/01/28 03:27:50;;;;;;;55.75;30.80;;;;;;;5.41;100.00;102496.31;5075953;28;20392;-74
2022/01/28 03:30:16;;;;;;;46.60;27.23;;;;;;;5.42;100.00;102492.50;5097597;28;20059;-74
2022/01/28 03:32:41;;;;;;;51.05;27.10;;;;;;;5.42;100.00;102491.66;5104528;28;20043;-74
2022/01/28 03:35:09;;;;;;;44.63;25.73;;;;;;;5.42;100.00;102489.75;5106836;28;20024;-73
2022/01/28 03:37:34;;;;;;;45.28;25.13;;;;;;;5.41;100.00;102485.31;5110656;28;20024;-74
2022/01/28 03:40:01;;;;;;;48.28;26.75;;;;;;;5.42;100.00;102486.16;5116870;28;20089;-74
2022/01/28 03:42:26;;;;;;;49.03;26.42;;;;;;;5.42;100.00;102483.38;5114485;28;20502;-74
2022/01/28 03:44:52;;;;;;;76.07;36.10;;;;;;;5.44;100.00;102487.63;5115208;28;20028;-74
2022/01/28 03:47:17;;;;;;;65.50;34.40;;;;;;;5.42;100.00;102481.47;5116267;28;20031;-74
2022/01/28 03:49:42;;;;;;;90.75;40.05;;;;;;;5.44;100.00;102473.00;5112244;28;20036;-74
2022/01/28 03:52:08;;;;;;;78.80;39.67;;;;;;;5.46;100.00;102485.53;5115464;28;20057;-74
2022/01/28 03:54:33;;;;;;;107.55;43.53;;;;;;;5.47;100.00;102489.97;5114003;28;20043;-74
2022/01/28 03:56:59;;;;;;;94.85;44.80;;;;;;;5.48;100.00;102488.06;5095725;28;20503;-74
2022/01/28 03:59:24;;;;;;;108.22;43.22;;;;;;;5.48;100.00;102490.81;5112345;28;20039;-74
2022/01/28 04:01:51;;;;;;;85.57;43.63;;;;;;;5.49;100.00;102486.97;5101168;28;20031;-74
2022/01/28 04:12:51;;;;;;;63.15;33.15;;;;;;;5.50;100.00;102488.69;5112585;28;20028;-74
2022/01/28 04:17:47;;;;;;;63.88;33.60;;;;;;;5.51;100.00;102490.38;5113152;28;20035;-74
2022/01/28 04:20:13;;;;;;;60.15;32.00;;;;;;;5.48;100.00;102486.13;5094507;28;20495;-74
2022/01/28 04:22:38;;;;;;;55.15;32.00;;;;;;;5.49;100.00;102486.97;5116263;28;20057;-74
2022/01/28 04:25:04;;;;;;;58.38;31.88;;;;;;;5.48;100.00;102491.66;5096409;28;20453;-74
2022/01/28 04:27:29;;;;;;;57.88;31.95;;;;;;;5.47;100.00;102481.69;5093821;28;20040;-74
2022/01/28 04:29:55;;;;;;;57.78;32.53;;;;;;;5.48;100.00;102479.78;5104680;28;20036;-74
2022/01/28 04:32:22;;;;;;;55.15;31.63;;;;;;;5.47;100.00;102478.94;5103439;28;20071;-74
2022/01/28 04:34:48;;;;;;;53.80;30.23;;;;;;;5.48;100.00;102479.78;5107371;28;20062;-74
2022/01/28 04:39:56;;;;;;;52.60;29.92;;;;;;;5.47;100.00;102478.09;5105288;28;20036;-74
2022/01/28 04:48:27;;;;;;;56.33;31.40;;;;;;;5.46;100.00;102481.88;5101734;28;20028;-74
2022/01/28 05:03:59;;;;;;;47.67;28.08;;;;;;;5.40;100.00;102480.84;5100586;28;20035;-74
2022/01/28 05:27:27;;;;;;;44.22;25.65;;;;;;;5.28;100.00;102507.34;5109212;28;20035;-74
2022/01/28 05:29:53;;;;;;;41.13;24.67;;;;;;;5.26;100.00;102510.28;5087501;27;20117;-74
2022/01/28 05:32:18;;;;;;;41.72;25.10;;;;;;;5.26;100.00;102503.94;5092197;27;20118;-74
2022/01/28 05:34:44;;;;;;;43.88;25.65;;;;;;;5.24;100.00;102508.81;5115145;27;20024;-74
2022/01/28 05:37:10;;;;;;;42.70;26.88;;;;;;;5.24;100.00;102501.41;5102256;28;20042;-74
2022/01/28 05:39:35;;;;;;;40.65;24.95;;;;;;;5.24;100.00;102498.66;5099578;27;20526;-74
2022/01/28 05:42:01;;;;;;;41.78;26.02;;;;;;;5.25;100.00;102502.25;5111779;27;20032;-74
2022/01/28 05:44:27;;;;;;;44.78;24.98;;;;;;;5.24;100.00;102500.56;5123851;27;20032;-74
2022/01/28 05:46:55;;;;;;;48.55;29.10;;;;;;;5.25;100.00;102508.59;5115364;28;20544;-74
2022/01/28 05:49:21;;;;;;;48.88;28.38;;;;;;;5.23;100.00;102505.19;5110209;27;20426;-74
2022/01/28 05:51:46;;;;;;;44.90;26.65;;;;;;;5.24;100.00;102511.56;5091570;28;20040;-74
2022/01/28 05:54:12;;;;;;;46.33;26.98;;;;;;;5.25;100.00;102510.50;5122749;27;20036;-74
2022/01/28 05:56:37;;;;;;;44.65;26.33;;;;;;;5.24;100.00;102517.09;5115083;27;20032;-74
2022/01/28 05:59:03;;;;;;;56.22;31.20;;;;;;;5.26;100.00;102512.19;5110699;27;20023;-74
2022/01/28 06:01:28;;;;;;;53.22;31.02;;;;;;;5.25;100.00;102514.09;5120179;27;20084;-74
2022/01/28 06:03:54;;;;;;;51.55;29.50;;;;;;;5.26;100.00;102520.47;5122389;27;20547;-74
2022/01/28 06:06:21;;;;;;;54.40;31.33;;;;;;;5.27;100.00;102523.00;5134122;27;20031;-74
2022/01/28 06:08:48;;;;;;;53.30;30.77;;;;;;;5.27;100.00;102519.41;5117156;27;20668;-74
2022/01/28 06:11:14;;;;;;;59.85;35.60;;;;;;;5.27;100.00;102517.50;5102088;27;20027;-74
2022/01/28 06:13:39;;;;;;;71.93;37.63;;;;;;;5.28;100.00;102512.84;5118040;27;20032;-74
2022/01/28 06:16:05;;;;;;;90.88;42.17;;;;;;;5.28;100.00;102518.34;5114535;27;20032;-74
2022/01/28 06:18:30;;;;;;;57.00;33.20;;;;;;;5.27;100.00;102519.41;5099644;28;20067;-74
2022/01/28 06:20:56;;;;;;;57.92;33.10;;;;;;;5.28;100.00;102521.09;5130553;27;20056;-74
2022/01/28 06:23:21;;;;;;;55.33;32.33;;;;;;;5.30;100.00;102516.25;5113184;27;20028;-74
2022/01/28 06:25:48;;;;;;;55.20;32.08;;;;;;;5.29;100.00;102514.53;5113936;28;20084;-74
2022/01/28 06:28:13;;;;;;;53.30;32.30;;;;;;;5.29;100.00;102509.88;5115171;28;20067;-74
2022/01/28 06:30:39;;;;;;;54.92;32.40;;;;;;;5.31;100.00;102512.41;5118602;27;20069;-74
2022/01/28 06:33:04;;;;;;;52.88;32.03;;;;;;;5.31;100.00;102507.75;5111741;27;20035;-74
2022/01/28 06:35:30;;;;;;;52.60;31.25;;;;;;;5.31;100.00;102512.41;5101116;28;20043;-74
2022/01/28 06:37:55;;;;;;;54.40;31.52;;;;;;;5.31;100.00;102513.25;5095451;28;20067;-74
2022/01/28 06:40:21;;;;;;;52.42;31.83;;;;;;;5.31;100.00;102515.16;5108680;27;20035;-74
2022/01/28 06:42:47;;;;;;;52.33;30.85;;;;;;;5.32;100.00;102514.09;5113093;27;20027;-74
2022/01/28 06:45:13;;;;;;;47.95;28.90;;;;;;;5.30;100.00;102517.09;5120132;27;20061;-74
2022/01/28 06:47:38;;;;;;;50.97;29.98;;;;;;;5.31;100.00;102517.94;5082958;28;20031;-74
2022/01/28 06:50:05;;;;;;;48.75;29.15;;;;;;;5.31;100.00;102506.91;5105152;28;20088;-74
2022/01/28 06:52:31;;;;;;;51.58;30.40;;;;;;;5.30;100.00;102522.59;5113920;28;20472;-75
2022/01/28 06:54:57;;;;;;;51.53;30.67;;;;;;;5.31;100.00;102532.53;5113284;27;20040;-74
2022/01/28 06:57:22;;;;;;;50.92;29.90;;;;;;;5.31;100.00;102527.03;5116673;27;20115;-74
2022/01/28 06:59:48;;;;;;;41.67;25.13;;;;;;;5.31;100.00;102537.22;5103131;28;20474;-74
2022/01/28 07:02:13;;;;;;;38.90;23.75;;;;;;;5.31;100.00;102543.56;5094483;28;20031;-74
2022/01/28 07:04:39;;;;;;;43.88;26.85;;;;;;;5.31;100.00;102543.56;5082944;28;20039;-74
2022/01/28 07:07:05;;;;;;;41.58;25.13;;;;;;;5.33;100.00;102548.88;5105041;28;20044;-74
2022/01/28 07:09:31;;;;;;;56.80;26.67;;;;;;;5.33;100.00;102566.25;5105812;28;20032;-75
2022/01/28 07:11:56;;;;;;;40.63;24.00;;;;;;;5.32;100.00;102564.56;5112943;27;20028;-74
2022/01/28 07:14:22;;;;;;;34.53;21.02;;;;;;;5.32;100.00;102564.56;5082662;28;20541;-74
2022/01/28 07:16:47;;;;;;;34.55;21.58;;;;;;;5.34;100.00;102572.63;5105043;28;20035;-74
2022/01/28 07:19:13;;;;;;;35.72;22.50;;;;;;;5.34;100.00;102572.63;5106712;28;20428;-74
2022/01/28 07:21:38;;;;;;;34.88;21.35;;;;;;;5.34;100.00;102567.09;5095699;28;20036;-74
2022/01/28 07:24:04;;;;;;;36.55;22.83;;;;;;;5.34;100.00;102572.63;5117624;28;20027;-74
2022/01/28 07:26:30;;;;;;;34.28;21.42;;;;;;;5.33;100.00;102576.44;5115219;27;20110;-74
2022/01/28 07:28:55;;;;;;;39.47;22.85;;;;;;;5.33;100.00;102570.94;5107722;28;20052;-76
2022/01/28 07:31:22;;;;;;;52.55;24.00;;;;;;;5.33;100.00;102574.53;5104073;28;20048;-76
2022/01/28 07:33:48;;;;;;;39.13;22.42;;;;;;;5.32;100.00;102581.09;5083002;28;20051;-76
2022/01/28 07:36:14;;;;;;;48.10;22.50;;;;;;;5.33;100.00;102582.78;5075876;28;20040;-76
2022/01/28 07:38:39;;;;;;;36.08;22.88;;;;;;;5.34;100.00;102580.88;5102152;28;20380;-77
2022/01/28 07:41:05;;;;;;;36.70;20.27;;;;;;;5.34;100.00;102575.38;5074929;28;20032;-77
2022/01/28 07:43:31;;;;;;;34.00;19.80;;;;;;;5.33;100.00;102577.28;5053275;28;20053;-76
2022/01/28 07:45:57;;;;;;;30.52;18.95;;;;;;;5.34;100.00;102580.88;5076647;28;20028;-76
2022/01/28 07:48:22;;;;;;;31.63;19.25;;;;;;;5.35;100.00;102590.88;5073713;28;20066;-77
2022/01/28 07:50:47;;;;;;;29.70;18.35;;;;;;;5.36;100.00;102592.53;5061258;28;20140;-76
2022/01/28 07:53:16;;;;;;;28.95;18.27;;;;;;;5.35;100.00;102597.22;5049918;28;20145;-77
2022/01/28 07:55:43;;;;;;;27.88;17.05;;;;;;;5.35;100.00;102607.41;5076488;28;20032;-76
2022/01/28 07:58:08;;;;;;;27.35;16.55;;;;;;;5.36;100.00;102609.09;5066511;28;20036;-76
2022/01/28 08:00:33;;;;;;;27.13;16.70;;;;;;;5.35;100.00;102597.22;5077150;28;20034;-76
2022/01/28 08:02:59;;;;;;;26.42;15.88;;;;;;;5.35;100.00;102607.41;5051025;28;20036;-76
2022/01/28 08:05:25;;;;;;;24.90;15.55;;;;;;;5.37;100.00;102608.00;5061349;28;20488;-76
2022/01/28 08:07:51;;;;;;;26.20;16.60;;;;;;;5.36;100.00;102620.09;5067750;28;20035;-76
2022/01/28 08:10:16;;;;;;;23.20;15.05;;;;;;;5.35;100.00;102630.28;5075893;28;20038;-76
2022/01/28 08:12:52;;;;;;;23.73;15.02;;;;;;;5.37;100.00;102633.66;5052253;28;20024;-76
2022/01/28 08:15:18;;;;;;;23.55;15.80;;;;;;;5.36;100.00;102633.88;5084472;28;20035;-77
2022/01/28 08:17:44;;;;;;;28.58;16.73;;;;;;;5.37;100.00;102636.41;5067096;28;20059;-75
2022/01/28 08:20:10;;;;;;;25.02;15.15;;;;;;;5.39;100.00;102641.72;5074151;28;20086;-77
2022/01/28 08:22:58;;;;;;;21.98;14.65;;;;;;;5.38;100.00;102640.03;5087830;28;20031;-76
2022/01/28 08:25:25;;;;;;;29.10;16.67;;;;;;;5.39;100.00;102647.25;5099179;28;20024;-77
2022/01/28 08:27:50;;;;;;;26.23;16.35;;;;;;;5.39;100.00;102647.25;5092090;28;20499;-77
2022/01/28 08:30:17;;;;;;;23.15;15.25;;;;;;;5.42;100.00;102648.72;5078701;28;20040;-77
2022/01/28 08:32:43;;;;;;;23.10;15.18;;;;;;;5.43;100.00;102645.75;5116281;28;20064;-77
2022/01/28 08:35:09;;;;;;;18.90;13.18;;;;;;;5.43;100.00;102642.16;5111083;28;20028;-76
2022/01/28 08:37:34;;;;;;;20.90;13.90;;;;;;;5.45;100.00;102646.41;5105002;28;20671;-76
2022/01/28 08:40:00;;;;;;;21.55;13.32;;;;;;;5.46;100.00;102645.38;5099233;28;20377;-76
2022/01/28 08:42:26;;;;;;;21.73;15.05;;;;;;;5.48;100.00;102651.50;5101087;28;20539;-77
2022/01/28 08:44:52;;;;;;;20.13;13.45;;;;;;;5.50;100.00;102651.31;5113938;28;20123;-76
2022/01/28 08:47:17;;;;;;;25.52;15.90;;;;;;;5.52;100.00;102657.47;5105081;28;20024;-77
2022/01/28 08:49:43;;;;;;;19.48;13.40;;;;;;;5.55;100.00;102662.56;5096051;28;20559;-76
2022/01/28 08:52:08;;;;;;;19.02;13.23;;;;;;;5.57;100.00;102663.19;5115332;28;20042;-76
2022/01/28 08:54:34;;;;;;;20.33;12.95;;;;;;;5.60;100.00;102677.41;5102398;28;20035;-76
2022/01/28 08:56:59;;;;;;;19.60;13.43;;;;;;;5.64;100.00;102665.97;5083441;28;20411;-76
2022/01/28 08:59:25;;;;;;;19.08;12.95;;;;;;;5.65;100.00;102665.75;5095066;28;20063;-76
2022/01/28 09:01:50;;;;;;;19.30;12.52;;;;;;;5.69;100.00;102674.47;5070369;28;20049;-76
2022/01/28 09:04:16;;;;;;;19.15;12.88;;;;;;;5.71;100.00;102683.34;5091994;28;20024;-76
2022/01/28 09:06:41;;;;;;;19.52;12.55;;;;;;;5.75;100.00;102684.66;5104278;28;20046;-77
2022/01/28 09:09:07;;;;;;;20.73;14.68;;;;;;;5.80;100.00;102687.63;5076789;28;20028;-77
2022/01/28 09:14:27;;;;;;;22.67;15.15;;;;;;;5.88;100.00;102683.81;5057195;28;20037;-78
2022/01/28 09:16:52;;;;;;;20.17;13.23;;;;;;;5.89;100.00;102686.38;5069849;28;20024;-80
2022/01/28 09:19:18;;;;;;;20.23;13.68;;;;;;;5.94;100.00;102692.16;5106596;27;20028;-78
2022/01/28 09:21:44;;;;;;;20.30;13.80;;;;;;;5.97;100.00;102694.47;5114250;27;20107;-76
2022/01/28 09:24:09;;;;;;;19.67;13.60;;;;;;;6.00;100.00;102694.06;5104469;28;20024;-80
2022/01/28 09:26:35;;;;;;;22.17;14.07;;;;;;;6.06;100.00;102697.03;5114667;28;20043;-80
2022/01/28 09:29:01;;;;;;;21.88;14.40;;;;;;;6.09;100.00;102704.91;5099108;28;20096;-80
2022/01/28 09:31:26;;;;;;;24.02;15.90;;;;;;;6.12;100.00;102698.94;5084308;27;20043;-79
2022/01/28 09:33:52;;;;;;;26.25;16.83;;;;;;;6.15;100.00;102698.53;5083626;28;20039;-79
2022/01/28 09:36:17;;;;;;;22.90;16.15;;;;;;;6.18;100.00;102703.63;5111067;28;20035;-79
2022/01/28 09:38:43;;;;;;;33.13;20.85;;;;;;;6.23;100.00;102692.81;5116045;28;20031;-79
2022/01/28 09:41:08;;;;;;;27.95;18.13;;;;;;;6.26;100.00;102697.91;5097614;28;20031;-80
2022/01/28 09:43:34;;;;;;;27.27;17.67;;;;;;;6.29;100.00;102682.81;5059359;28;20036;-74
2022/01/28 09:46:00;;;;;;;31.92;19.88;;;;;;;6.32;100.00;102687.91;5077781;27;20492;-74
2022/01/28 09:48:26;;;;;;;29.35;18.63;;;;;;;6.33;100.00;102693.25;5064049;27;20032;-75
2022/01/28 09:50:51;;;;;;;27.73;18.30;;;;;;;6.37;100.00;102711.06;5063038;28;20504;-74
2022/01/28 09:53:18;;;;;;;28.33;17.98;;;;;;;6.40;100.00;102718.91;5079193;27;20035;-77
2022/01/28 09:55:45;;;;;;;29.27;18.38;;;;;;;6.43;100.00;102721.25;5077205;28;20063;-76
2022/01/28 09:58:11;;;;;;;25.67;17.48;;;;;;;6.46;100.00;102722.72;5114822;27;20584;-76
2022/01/28 10:00:36;;;;;;;28.70;18.05;;;;;;;6.48;100.00;102734.41;5083268;28;20076;-75
2022/01/28 10:03:04;;;;;;;30.52;18.77;;;;;;;6.51;100.00;102738.66;5103300;28;20077;-76
2022/01/28 10:05:41;;;;;;;28.85;18.02;;;;;;;6.54;100.00;102739.06;5101359;28;20038;-75
2022/01/28 10:08:11;;;;;;;27.40;18.25;;;;;;;6.56;100.00;102733.34;5070806;28;20032;-77
2022/01/28 10:10:48;;;;;;;27.48;17.85;;;;;;;6.57;100.00;102730.38;5089332;28;20386;-77
2022/01/28 10:13:18;;;;;;;26.38;16.23;;;;;;;6.61;100.00;102723.38;5106170;28;20051;-79
2022/01/28 10:15:58;;;;;;;27.67;17.25;;;;;;;6.63;100.00;102717.63;5073272;28;20044;-77
2022/01/28 10:18:38;;;;;;;24.17;16.50;;;;;;;6.66;100.00;102719.97;5091295;28;20035;-74
2022/01/28 10:21:19;;;;;;;28.90;18.33;;;;;;;6.68;100.00;102718.69;5087708;28;20514;-75
2022/01/28 10:24:04;;;;;;;27.52;17.02;;;;;;;6.72;100.00;102733.78;5111145;28;20031;-80
2022/01/28 10:26:37;;;;;;;27.65;17.83;;;;;;;6.77;100.00;102744.19;5080678;28;20032;-77
2022/01/28 10:29:13;;;;;;;26.40;17.45;;;;;;;6.80;100.00;102738.22;5095332;28;20055;-77
2022/01/28 10:31:43;;;;;;;26.40;16.60;;;;;;;6.84;100.00;102749.69;5084775;27;20105;-77
2022/01/28 10:34:16;;;;;;;30.05;18.70;;;;;;;6.88;100.00;102750.94;5134757;27;20256;-77
2022/01/28 10:36:42;;;;;;;27.95;17.17;;;;;;;6.93;100.00;102748.38;5119653;27;20463;-75
2022/01/28 10:39:12;;;;;;;25.15;16.00;;;;;;;6.96;100.00;102736.06;5136105;27;20031;-77
2022/01/28 10:41:40;;;;;;;24.55;16.17;;;;;;;7.00;100.00;102742.88;5115541;27;20058;-77
2022/01/28 10:44:07;;;;;;;25.73;15.50;;;;;;;7.06;100.00;102747.53;5083888;27;20028;-80
2022/01/28 10:46:35;;;;;;;23.45;15.88;;;;;;;7.10;100.00;102748.78;5103529;27;20201;-77
2022/01/28 10:49:02;;;;;;;24.25;15.98;;;;;;;7.11;100.00;102754.09;5132850;27;20114;-80
2022/01/28 10:51:45;;;;;;;26.75;16.15;;;;;;;7.20;100.00;102763.00;5113890;27;20551;-78
2022/01/28 10:54:12;;;;;;;26.05;15.93;;;;;;;7.27;100.00;102761.09;5103849;27;20023;-77
2022/01/28 10:56:47;;;;;;;24.15;15.20;;;;;;;7.32;100.00;102760.41;5097424;27;20474;-77
2022/01/28 10:59:14;;;;;;;22.33;14.98;;;;;;;7.39;100.00;102770.38;5115924;27;20027;-78
2022/01/28 11:01:41;;;;;;;24.48;15.32;;;;;;;7.46;100.00;102775.88;5115040;27;20032;-78
2022/01/28 11:04:06;;;;;;;22.73;14.82;;;;;;;7.55;100.00;102773.72;5116671;27;20500;-78
2022/01/28 11:06:32;;;;;;;22.20;13.18;;;;;;;7.59;100.00;102780.53;5119133;27;20038;-78
2022/01/28 11:08:57;;;;;;;21.60;13.98;;;;;;;7.66;100.00;102786.91;5134424;27;20055;-77
2022/01/28 11:11:23;;;;;;;25.90;15.15;;;;;;;7.71;100.00;102778.75;5122937;27;20462;-75
2022/01/28 11:13:48;;;;;;;19.95;13.43;;;;;;;7.77;100.00;102772.38;5104488;27;20031;-75
2022/01/28 11:16:14;;;;;;;21.67;13.27;;;;;;;7.83;100.00;102774.25;5108316;27;20510;-75
2022/01/28 11:18:39;;;;;;;22.58;13.68;;;;;;;7.88;100.00;102768.03;5108550;27;20031;-75
2022/01/28 11:21:06;;;;;;;23.02;14.05;;;;;;;7.92;100.00;102765.69;5086087;27;20055;-75
2022/01/28 11:23:41;;;;;;;25.88;14.82;;;;;;;7.97;100.00;102760.34;5120910;27;20032;-75
2022/01/28 11:26:38;;;;;;;24.30;14.65;;;;;;;8.01;100.00;102753.28;5126032;27;20119;-75
2022/01/28 11:29:26;;;;;;;26.48;15.57;;;;;;;8.05;100.00;102746.22;5115780;27;20039;-76
2022/01/28 11:31:53;;;;;;;33.20;16.58;;;;;;;8.09;100.00;102741.97;5099923;28;20040;-76
2022/01/28 11:34:25;;;;;;;35.80;17.02;;;;;;;8.13;100.00;102732.13;5108112;28;20493;-76
2022/01/28 11:36:53;;;;;;;36.87;19.37;;;;;;;8.16;100.00;102728.94;5111473;28;20039;-76
2022/01/28 11:39:35;;;;;;;49.33;20.40;;;;;;;8.23;100.00;102731.66;5106079;28;20036;-75
2022/01/28 11:42:11;;;;;;;53.65;23.02;;;;;;;8.29;100.00;102723.28;5088948;28;20111;-76
2022/01/28 11:44:40;;;;;;;72.25;26.00;;;;;;;8.36;100.00;102722.38;5108317;28;20031;-75
2022/01/28 11:47:07;;;;;;;69.97;25.90;;;;;;;8.42;100.00;102718.75;5106896;28;20038;-75
2022/01/28 11:49:36;;;;;;;80.25;29.20;;;;;;;8.48;100.00;102715.09;5093211;28;20170;-75
2022/01/28 11:52:20;;;;;;;78.68;27.60;;;;;;;8.56;100.00;102711.19;5089547;28;20036;-76
2022/01/28 11:54:46;;;;;;;65.70;26.00;;;;;;;8.61;100.00;102703.88;5087512;28;20035;-75
2022/01/28 11:57:12;;;;;;;54.67;24.75;;;;;;;8.67;100.00;102699.34;5093909;28;20036;-75
2022/01/28 11:59:38;;;;;;;49.03;23.08;;;;;;;8.73;100.00;102702.06;5103851;28;20035;-76
2022/01/28 12:02:07;;;;;;;41.92;21.90;;;;;;;8.80;100.00;102696.44;5113964;28;20095;-76
2022/01/28 12:04:37;;;;;;;37.38;21.60;;;;;;;8.86;100.00;102694.66;5105596;28;20019;-76
2022/01/28 12:07:15;;;;;;;36.17;21.15;;;;;;;8.92;100.00;102694.63;5102707;28;20051;-73
2022/01/28 12:09:43;;;;;;;36.95;21.45;;;;;;;8.97;100.00;102687.53;5110709;28;20036;-73
2022/01/28 12:12:10;;;;;;;33.30;19.27;;;;;;;9.01;100.00;102689.59;5071428;28;20727;-73
2022/01/28 12:15:05;;;;;;;35.35;20.73;;;;;;;9.10;100.00;102690.16;5080937;28;20032;-73
2022/01/28 12:17:33;;;;;;;33.35;19.95;;;;;;;9.17;100.00;102700.09;5095279;28;20032;-73
2022/01/28 12:20:19;;;;;;;30.60;19.92;;;;;;;9.24;100.00;102690.84;5105157;28;20067;-73
2022/01/28 12:23:02;;;;;;;33.55;19.00;;;;;;;9.27;100.00;102696.75;5093306;28;20036;-73
2022/01/28 12:25:39;;;;;;;32.33;18.77;;;;;;;9.35;100.00;102707.53;5090951;28;20036;-73
2022/01/28 12:28:23;;;;;;;32.13;18.63;;;;;;;9.45;100.00;102709.78;5114416;28;20031;-73
2022/01/28 12:31:02;;;;;;;30.42;19.38;;;;;;;9.53;100.00;102705.84;5101284;28;20043;-73
2022/01/28 12:33:29;;;;;;;31.20;18.75;;;;;;;9.58;100.00;102709.59;5109370;28;20040;-73
2022/01/28 12:35:57;;;;;;;28.95;18.85;;;;;;;9.65;100.00;102697.56;5113889;28;20036;-73
2022/01/28 12:38:25;;;;;;;27.70;18.38;;;;;;;9.70;100.00;102693.00;5109784;28;20136;-73
2022/01/28 12:40:56;;;;;;;32.38;19.65;;;;;;;9.75;100.00;102683.97;5114440;28;20024;-73
2022/01/28 12:43:23;;;;;;;28.33;19.17;;;;;;;9.80;100.00;102676.63;5110695;28;20031;-73
2022/01/28 12:45:58;;;;;;;28.77;18.92;;;;;;;9.86;100.00;102680.38;5111495;28;20027;-73
2022/01/28 12:48:24;;;;;;;28.75;18.40;;;;;;;9.92;100.00;102673.91;5114276;28;20110;-73
2022/01/28 12:50:50;;;;;;;26.13;17.50;;;;;;;9.98;100.00;102661.84;5124539;28;20039;-73
2022/01/28 12:53:47;;;;;;;24.08;16.35;;;;;;;10.02;100.00;102670.53;5111787;28;20063;-73